createdAt,value
2022-10-06T00:00:06.686Z,11.80
2022-10-06T00:03:11.088Z,11.70
2022-10-06T00:06:15.704Z,11.72
2022-10-06T00:09:18.674Z,11.67
2022-10-06T00:12:21.518Z,11.63
2022-10-06T00:15:27.829Z,11.56
2022-10-06T00:18:31.056Z,11.55
2022-10-06T00:21:34.458Z,11.47
2022-10-06T00:24:37.437Z,11.40
2022-10-06T00:27:42.526Z,11.30
2022-10-06T00:30:47.023Z,11.20
2022-10-06T00:33:50.380Z,11.06
2022-10-06T00:36:52.842Z,10.93
2022-10-06T00:39:55.925Z,10.93
2022-10-06T00:43:05.017Z,10.90
2022-10-06T00:46:16.997Z,10.86
2022-10-06T00:49:30.993Z,10.84
2022-10-06T00:52:33.985Z,10.85
2022-10-06T00:55:37.089Z,10.81
2022-10-06T00:58:40.115Z,10.68
2022-10-06T01:01:49.948Z,10.66
2022-10-06T01:04:58.530Z,10.72
2022-10-06T01:08:01.429Z,10.66
2022-10-06T01:11:04.389Z,10.64
2022-10-06T01:14:06.901Z,10.65
2022-10-06T01:17:19.784Z,10.65
2022-10-06T01:20:23.228Z,10.65
2022-10-06T01:23:26.448Z,10.66
2022-10-06T01:26:30.188Z,10.64
2022-10-06T01:29:33.953Z,10.56
2022-10-06T01:32:39.320Z,10.56
2022-10-06T01:35:43.147Z,10.51
2022-10-06T01:38:45.631Z,10.52
2022-10-06T01:41:48.794Z,10.40
2022-10-06T01:44:51.899Z,10.24
2022-10-06T01:47:54.959Z,10.36
2022-10-06T01:50:58.039Z,10.35
2022-10-06T01:54:00.850Z,10.31
2022-10-06T01:57:06.117Z,10.31
2022-10-06T02:00:10.769Z,10.26
2022-10-06T02:03:15.084Z,10.26
2022-10-06T02:06:18.145Z,10.23
2022-10-06T02:09:20.841Z,10.20
2022-10-06T02:12:24.455Z,10.17
2022-10-06T02:15:28.589Z,10.14
2022-10-06T02:18:33.837Z,10.08
2022-10-06T02:21:36.683Z,9.99
2022-10-06T02:24:39.318Z,9.99
2022-10-06T02:27:42.353Z,9.99
2022-10-06T02:30:46.099Z,9.93
2022-10-06T02:33:49.136Z,9.94
2022-10-06T02:36:52.077Z,9.91
2022-10-06T02:39:55.620Z,9.86
2022-10-06T02:42:58.635Z,9.82
2022-10-06T02:46:12.170Z,9.83
2022-10-06T02:49:16.190Z,9.75
2022-10-06T02:52:19.259Z,9.78
2022-10-06T02:55:21.980Z,9.73
2022-10-06T02:58:25.327Z,9.73
2022-10-06T03:01:29.279Z,9.64
2022-10-06T03:04:32.485Z,9.62
2022-10-06T03:07:35.052Z,9.64
2022-10-06T03:10:38.267Z,9.63
2022-10-06T03:13:41.616Z,9.57
2022-10-06T03:16:44.642Z,9.48
2022-10-06T03:19:47.831Z,9.60
2022-10-06T03:22:53.804Z,9.54
2022-10-06T03:25:57.687Z,9.56
2022-10-06T03:29:01.656Z,9.62
2022-10-06T03:32:04.916Z,9.76
2022-10-06T03:35:08.830Z,9.82
2022-10-06T03:38:11.819Z,9.73
2022-10-06T03:41:19.956Z,9.92
2022-10-06T03:44:23.502Z,9.98
2022-10-06T03:47:29.993Z,10.00
2022-10-06T03:50:33.556Z,10.00
2022-10-06T03:53:38.031Z,10.00
2022-10-06T03:56:42.172Z,10.08
2022-10-06T03:59:45.492Z,10.11
2022-10-06T04:02:49.791Z,10.09
2022-10-06T04:05:54.726Z,10.00
2022-10-06T04:08:58.248Z,10.03
2022-10-06T04:12:01.873Z,10.13
2022-10-06T04:15:04.934Z,10.08
2022-10-06T04:18:07.925Z,10.06
2022-10-06T04:21:11.975Z,10.05
2022-10-06T04:24:17.268Z,10.01
2022-10-06T04:27:28.905Z,9.99
2022-10-06T04:30:32.551Z,9.92
2022-10-06T04:33:35.254Z,9.94
2022-10-06T04:36:41.244Z,9.75
2022-10-06T04:39:44.629Z,9.78
2022-10-06T04:42:49.357Z,9.65
2022-10-06T04:45:59.539Z,9.61
2022-10-06T04:49:03.614Z,9.58
2022-10-06T04:52:06.770Z,9.46
2022-10-06T04:55:11.100Z,9.54
2022-10-06T04:58:13.862Z,9.21
2022-10-06T05:01:18.280Z,9.46
2022-10-06T05:04:21.349Z,9.42
2022-10-06T05:07:24.216Z,9.36
2022-10-06T05:10:28.575Z,9.42
2022-10-06T05:13:32.164Z,9.79
2022-10-06T05:16:38.093Z,11.08
2022-10-06T05:19:41.736Z,11.71
2022-10-06T05:22:44.405Z,12.08
2022-10-06T05:25:52.747Z,12.34
2022-10-06T05:28:56.277Z,11.98
2022-10-06T05:31:59.567Z,11.44
2022-10-06T05:35:03.304Z,11.02
2022-10-06T05:38:06.405Z,10.79
2022-10-06T05:41:14.484Z,10.68
2022-10-06T05:44:17.674Z,10.66
2022-10-06T05:47:20.450Z,10.65
2022-10-06T05:50:26.557Z,10.65
2022-10-06T05:53:30.463Z,10.63
2022-10-06T05:56:38.150Z,10.63
2022-10-06T05:59:41.735Z,10.66
2022-10-06T06:02:44.550Z,10.68
2022-10-06T06:05:48.105Z,10.69
2022-10-06T06:08:56.760Z,10.66
2022-10-06T06:12:00.210Z,10.44
2022-10-06T06:15:22.416Z,10.73
2022-10-06T06:18:32.145Z,10.81
2022-10-06T06:21:35.316Z,11.41
2022-10-06T06:24:38.666Z,11.40
2022-10-06T06:27:42.194Z,11.39
2022-10-06T06:30:45.253Z,11.48
2022-10-06T06:33:51.113Z,11.56
2022-10-06T06:36:55.931Z,11.65
2022-10-06T06:39:58.647Z,11.70
2022-10-06T06:43:01.599Z,11.83
2022-10-06T06:46:08.595Z,11.98
2022-10-06T06:49:20.711Z,12.10
2022-10-06T06:52:26.081Z,12.12
2022-10-06T06:55:29.369Z,12.38
2022-10-06T06:58:32.771Z,12.53
2022-10-06T07:01:37.067Z,12.76
2022-10-06T07:04:40.396Z,12.94
2022-10-06T07:07:44.479Z,13.22
2022-10-06T07:10:48.623Z,13.33
2022-10-06T07:13:53.720Z,13.65
2022-10-06T07:17:15.024Z,13.75
2022-10-06T07:20:36.778Z,14.00
2022-10-06T07:23:58.132Z,14.29
2022-10-06T07:27:02.063Z,14.43
2022-10-06T07:30:05.197Z,14.60
2022-10-06T07:33:09.243Z,14.78
2022-10-06T07:36:12.848Z,14.88
2022-10-06T07:39:15.846Z,14.70
2022-10-06T07:42:18.749Z,14.62
2022-10-06T07:45:39.083Z,14.81
2022-10-06T07:48:43.198Z,15.09
2022-10-06T07:51:50.107Z,15.25
2022-10-06T07:54:53.521Z,15.50
2022-10-06T07:57:56.820Z,15.60
2022-10-06T08:01:10.164Z,15.92
2022-10-06T08:04:13.776Z,15.98
2022-10-06T08:07:16.297Z,16.07
2022-10-06T08:10:20.827Z,16.14
2022-10-06T08:13:24.019Z,16.19
2022-10-06T08:16:31.008Z,16.44
2022-10-06T08:19:33.726Z,16.46
2022-10-06T08:22:38.910Z,16.64
2022-10-06T08:25:44.689Z,16.64
2022-10-06T08:28:50.157Z,16.59
2022-10-06T08:31:52.715Z,16.49
2022-10-06T08:34:56.181Z,16.41
2022-10-06T08:37:59.237Z,16.41
2022-10-06T08:41:02.720Z,16.36
2022-10-06T08:44:19.233Z,16.42
2022-10-06T08:47:23.495Z,16.43
2022-10-06T08:50:29.883Z,16.43
2022-10-06T08:53:46.990Z,16.31
2022-10-06T08:57:03.569Z,16.25
2022-10-06T09:00:18.165Z,16.21
2022-10-06T09:03:29.449Z,16.42
2022-10-06T09:06:41.339Z,16.69
2022-10-06T09:10:02.123Z,16.71
2022-10-06T09:13:21.612Z,16.63
2022-10-06T09:16:30.185Z,16.70
2022-10-06T09:19:46.280Z,16.78
2022-10-06T09:22:50.770Z,16.94
2022-10-06T09:25:55.164Z,16.88
2022-10-06T09:28:58.456Z,17.55
2022-10-06T09:32:02.980Z,17.50
2022-10-06T09:35:23.043Z,18.01
2022-10-06T09:38:45.735Z,18.47
2022-10-06T09:41:48.652Z,18.88
2022-10-06T09:44:51.532Z,19.30
2022-10-06T09:47:54.005Z,20.01
2022-10-06T09:51:17.248Z,20.66
2022-10-06T09:54:19.634Z,21.12
2022-10-06T09:57:28.302Z,21.64
2022-10-06T10:00:36.175Z,21.99
2022-10-06T10:07:27.147Z,22.86
2022-10-06T10:10:30.336Z,23.18
2022-10-06T10:13:42.493Z,23.56
2022-10-06T10:16:48.627Z,23.82
2022-10-06T10:19:55.692Z,23.77
2022-10-06T10:23:01.677Z,23.71
2022-10-06T10:26:27.258Z,23.44
2022-10-06T10:29:32.998Z,23.50
2022-10-06T10:32:53.943Z,23.71
2022-10-06T10:35:57.421Z,23.33
2022-10-06T10:39:01.430Z,23.02
2022-10-06T10:42:14.575Z,23.01
2022-10-06T10:45:24.832Z,22.90
2022-10-06T10:48:46.256Z,23.03
2022-10-06T10:52:20.479Z,23.33
2022-10-06T10:55:37.105Z,23.16
2022-10-06T10:58:42.421Z,22.97
2022-10-06T11:02:13.774Z,22.56
2022-10-06T11:05:56.401Z,22.25
2022-10-06T11:09:06.863Z,21.84
2022-10-06T11:12:34.036Z,21.91
2022-10-06T11:15:40.052Z,21.91
2022-10-06T11:19:04.689Z,22.09
2022-10-06T11:22:29.879Z,22.29
2022-10-06T11:25:48.819Z,22.95
2022-10-06T11:29:17.043Z,23.71
2022-10-06T11:33:01.514Z,23.98
2022-10-06T11:36:08.761Z,24.83
2022-10-06T11:39:29.034Z,25.36
2022-10-06T11:42:41.290Z,25.33
2022-10-06T11:46:02.059Z,25.41
2022-10-06T11:49:29.618Z,25.40
2022-10-06T11:52:32.000Z,25.46
2022-10-06T11:55:34.919Z,25.72
2022-10-06T11:58:55.667Z,24.74
2022-10-06T12:01:59.231Z,23.93
2022-10-06T12:08:38.302Z,23.34
2022-10-06T12:11:42.437Z,22.88
2022-10-06T12:18:38.659Z,22.00
2022-10-06T12:21:50.677Z,21.66
2022-10-06T12:25:14.602Z,21.47
2022-10-06T12:28:23.209Z,21.25
2022-10-06T12:31:46.239Z,21.06
2022-10-06T12:34:58.590Z,20.97
2022-10-06T12:38:05.440Z,20.68
2022-10-06T12:41:12.155Z,20.61
2022-10-06T12:44:36.785Z,20.55
2022-10-06T12:47:42.239Z,20.51
2022-10-06T12:50:45.955Z,20.51
2022-10-06T12:54:10.189Z,20.55
2022-10-06T12:57:18.393Z,20.51
2022-10-06T13:00:31.590Z,20.63
2022-10-06T13:03:34.943Z,20.98
2022-10-06T13:06:37.401Z,21.24
2022-10-06T13:09:40.177Z,21.31
2022-10-06T13:12:47.472Z,21.16
2022-10-06T13:15:52.136Z,20.98
2022-10-06T13:18:57.047Z,20.84
2022-10-06T13:22:02.878Z,20.94
2022-10-06T13:25:05.956Z,20.92
2022-10-06T13:28:39.727Z,21.05
2022-10-06T13:31:51.815Z,21.03
2022-10-06T13:34:56.136Z,21.11
2022-10-06T13:38:02.514Z,21.45
2022-10-06T13:41:11.414Z,21.62
2022-10-06T13:44:18.797Z,21.61
2022-10-06T13:47:24.562Z,21.46
2022-10-06T13:50:27.343Z,21.33
2022-10-06T13:53:31.995Z,21.08
2022-10-06T13:56:39.952Z,21.02
2022-10-06T13:59:43.154Z,20.92
2022-10-06T14:02:51.368Z,20.84
2022-10-06T14:06:17.344Z,20.81
2022-10-06T14:09:26.358Z,20.80
2022-10-06T14:12:29.197Z,20.68
2022-10-06T14:15:57.809Z,20.64
2022-10-06T14:19:05.285Z,20.42
2022-10-06T14:22:40.493Z,20.36
2022-10-06T14:25:43.257Z,20.14
2022-10-06T14:28:48.674Z,19.92
2022-10-06T14:31:51.444Z,19.97
2022-10-06T14:34:54.104Z,19.94
2022-10-06T14:37:56.828Z,19.81
2022-10-06T14:41:02.962Z,19.69
2022-10-06T14:44:08.898Z,19.51
2022-10-06T14:47:11.494Z,19.46
2022-10-06T14:50:14.517Z,19.40
2022-10-06T14:53:17.618Z,19.24
2022-10-06T14:56:22.818Z,19.09
2022-10-06T14:59:25.738Z,18.94
2022-10-06T15:02:29.302Z,18.82
2022-10-06T15:05:31.932Z,18.65
2022-10-06T15:08:34.896Z,18.47
2022-10-06T15:11:40.906Z,18.37
2022-10-06T15:14:43.963Z,18.25
2022-10-06T15:17:46.642Z,18.15
2022-10-06T15:20:50.191Z,18.07
2022-10-06T15:23:57.667Z,18.11
2022-10-06T15:27:23.920Z,17.93
2022-10-06T15:30:27.519Z,17.81
2022-10-06T15:33:30.581Z,17.63
2022-10-06T15:36:36.319Z,17.48
2022-10-06T15:39:39.143Z,17.44
2022-10-06T15:42:41.795Z,17.33
2022-10-06T15:45:53.822Z,17.27
2022-10-06T15:49:02.776Z,17.18
2022-10-06T15:52:06.158Z,17.07
2022-10-06T15:55:10.595Z,17.00
2022-10-06T15:58:13.374Z,16.97
2022-10-06T16:01:25.346Z,16.88
2022-10-06T16:04:34.847Z,16.76
2022-10-06T16:07:37.446Z,16.75
2022-10-06T16:10:40.367Z,16.68
2022-10-06T16:13:42.874Z,16.63
2022-10-06T16:16:46.999Z,16.61
2022-10-06T16:19:49.692Z,16.51
2022-10-06T16:22:52.485Z,16.46
2022-10-06T16:25:55.048Z,16.40
2022-10-06T16:28:57.922Z,16.27
2022-10-06T16:32:00.443Z,16.29
2022-10-06T16:35:03.323Z,16.24
2022-10-06T16:38:05.918Z,16.22
2022-10-06T16:41:09.333Z,16.21
2022-10-06T16:44:11.880Z,16.16
2022-10-06T16:47:14.835Z,16.11
2022-10-06T16:50:18.045Z,16.04
2022-10-06T16:53:20.929Z,16.00
2022-10-06T16:56:27.089Z,15.90
2022-10-06T16:59:30.425Z,15.87
2022-10-06T17:02:34.062Z,15.87
2022-10-06T17:05:36.958Z,15.92
2022-10-06T17:08:39.812Z,15.94
2022-10-06T17:11:45.106Z,15.89
2022-10-06T17:14:47.593Z,15.88
2022-10-06T17:17:50.474Z,15.88
2022-10-06T17:20:57.854Z,15.88
2022-10-06T17:24:02.422Z,15.84
2022-10-06T17:27:05.107Z,15.80
2022-10-06T17:30:08.800Z,15.76
2022-10-06T17:33:11.592Z,15.71
2022-10-06T17:36:17.129Z,15.64
2022-10-06T17:39:21.654Z,15.60
2022-10-06T17:42:24.501Z,15.54
2022-10-06T17:45:27.455Z,15.48
2022-10-06T17:48:30.490Z,15.20
2022-10-06T17:51:33.862Z,15.37
2022-10-06T17:54:36.722Z,15.29
2022-10-06T17:57:40.003Z,15.24
2022-10-06T18:00:43.777Z,15.20
2022-10-06T18:03:47.644Z,15.18
2022-10-06T18:06:52.959Z,15.10
2022-10-06T18:10:14.203Z,15.07
2022-10-06T18:13:16.704Z,15.03
2022-10-06T18:16:24.252Z,15.18
2022-10-06T18:19:32.464Z,15.45
2022-10-06T18:22:35.252Z,15.62
2022-10-06T18:25:37.778Z,15.73
2022-10-06T18:28:40.647Z,15.79
2022-10-06T18:31:44.030Z,15.82
2022-10-06T18:38:09.425Z,15.81
2022-10-06T18:41:15.225Z,15.78
2022-10-06T18:44:37.676Z,15.78
2022-10-06T18:47:59.327Z,15.75
2022-10-06T18:51:02.997Z,15.74
2022-10-06T18:54:09.188Z,15.75
2022-10-06T18:57:13.217Z,15.67
2022-10-06T19:00:17.478Z,15.55
2022-10-06T19:03:20.015Z,15.26
2022-10-06T19:06:30.320Z,15.07
2022-10-06T19:09:32.839Z,14.92
2022-10-06T19:12:36.014Z,14.78
2022-10-06T19:15:39.035Z,14.60
2022-10-06T19:18:42.041Z,14.63
2022-10-06T19:21:48.994Z,14.58
2022-10-06T19:24:52.369Z,14.58
2022-10-06T19:27:55.049Z,14.52
2022-10-06T19:31:00.287Z,14.46
2022-10-06T19:34:04.645Z,14.42
2022-10-06T19:37:07.720Z,14.37
2022-10-06T19:40:11.486Z,14.25
2022-10-06T19:43:15.328Z,14.27
2022-10-06T19:46:19.078Z,14.21
2022-10-06T19:49:23.523Z,14.17
2022-10-06T19:52:26.255Z,14.10
2022-10-06T19:55:29.527Z,14.08
2022-10-06T19:58:33.385Z,14.08
2022-10-06T20:01:36.312Z,14.07
2022-10-06T20:04:39.977Z,14.05
2022-10-06T20:07:44.310Z,14.08
2022-10-06T20:10:47.373Z,14.05
2022-10-06T20:13:50.893Z,14.03
2022-10-06T20:16:54.872Z,14.00
2022-10-06T20:19:58.097Z,13.98
2022-10-06T20:23:01.201Z,13.96
2022-10-06T20:26:14.554Z,13.88
2022-10-06T20:29:23.679Z,13.90
2022-10-06T20:32:26.415Z,13.83
2022-10-06T20:35:29.327Z,13.86
2022-10-06T20:38:52.304Z,13.84
2022-10-06T20:41:56.215Z,13.84
2022-10-06T20:44:58.706Z,13.83
2022-10-06T20:48:02.070Z,13.80
2022-10-06T20:51:14.847Z,13.80
2022-10-06T20:54:30.930Z,13.71
2022-10-06T20:57:34.019Z,13.75
2022-10-06T21:00:36.976Z,13.70
2022-10-06T21:03:44.503Z,13.66
2022-10-06T21:06:47.957Z,13.61
2022-10-06T21:09:52.330Z,13.45
2022-10-06T21:12:55.899Z,13.47
2022-10-06T21:15:59.901Z,13.41
2022-10-06T21:19:04.391Z,13.33
2022-10-06T21:22:07.052Z,13.35
2022-10-06T21:25:10.104Z,13.35
2022-10-06T21:28:14.287Z,13.37
2022-10-06T21:31:18.852Z,13.35
2022-10-06T21:34:21.513Z,13.22
2022-10-06T21:37:24.363Z,13.32
2022-10-06T21:40:27.037Z,13.33
2022-10-06T21:43:29.912Z,13.32
2022-10-06T21:46:37.967Z,13.32
2022-10-06T21:49:40.839Z,13.36
2022-10-06T21:52:43.293Z,13.33
2022-10-06T21:55:46.717Z,13.34
2022-10-06T21:58:51.504Z,13.32
2022-10-06T22:01:54.440Z,13.36
2022-10-06T22:04:57.499Z,13.34
2022-10-06T22:08:00.206Z,13.35
2022-10-06T22:11:07.296Z,13.36
2022-10-06T22:14:12.188Z,13.32
2022-10-06T22:17:15.116Z,13.29
2022-10-06T22:20:17.638Z,13.27
2022-10-06T22:23:20.511Z,13.25
2022-10-06T22:26:24.859Z,13.22
2022-10-06T22:29:27.626Z,13.17
2022-10-06T22:32:31.540Z,13.17
2022-10-06T22:35:34.557Z,13.17
2022-10-06T22:38:37.032Z,13.13
2022-10-06T22:41:39.923Z,13.12
2022-10-06T22:44:42.372Z,13.14
2022-10-06T22:47:45.577Z,13.12
2022-10-06T22:50:49.345Z,13.10
2022-10-06T22:53:58.465Z,13.08
2022-10-06T22:57:01.398Z,13.01
2022-10-06T23:00:04.750Z,13.05
2022-10-06T23:03:07.887Z,12.95
2022-10-06T23:06:14.146Z,12.88
2022-10-06T23:09:16.906Z,12.88
2022-10-06T23:12:19.790Z,12.87
2022-10-06T23:15:22.477Z,12.84
2022-10-06T23:18:25.578Z,12.85
2022-10-06T23:21:28.201Z,12.83
2022-10-06T23:24:31.052Z,12.71
2022-10-06T23:27:34.498Z,12.77
2022-10-06T23:30:39.331Z,12.78
2022-10-06T23:33:42.058Z,12.76
2022-10-06T23:36:45.085Z,12.63
2022-10-06T23:39:47.685Z,12.70
2022-10-06T23:42:50.532Z,12.69
2022-10-06T23:45:53.065Z,12.65
2022-10-06T23:48:56.026Z,12.48
2022-10-06T23:51:58.625Z,12.58
2022-10-06T23:55:01.433Z,12.58
2022-10-06T23:58:03.935Z,12.55
